Phoenicia, New York
Current Conditions -  °F | °C
As of 2:35 PM on Wednesday 17 Dec 2014 (Local Time) from KMSV Reporting Station
Overcast Overcast  
Wind Chill: 30°   Ceiling: 1600
Heat Index: 37°   Visibility: 10mi
Dew Point: 34°   Wind: 10mph
Humidity: 87%   Direction: 280°W
Pressure: 29.82"   Gusts: 18mph
Location:  42.08°N, 74.31°W
Report Text: KMSV 171935Z AUTO 28009G16KT 10SM BKN016 OVC020 03/01 A2982 RMK AO1
Loading
Personal Weather Stations






























Interactive Weather Map New forecast layout! Learn more

10-Day Weather Forecast

Advertisements
Track Severe Weather on mobile